Time;durP1;ratioP1;P1;durP2;ratioP2;P2;SDS_P1;SDS_P2;PMS_P1;PMS_P2;Temp;Humidity;BMP_temperature;BMP_pressure;BME280_temperature;BME280_humidity;BME280_pressure;Samples;Min_cycle;Max_cycle;Signal;HPM_P1;HPM_P2
2024/01/16 00:03:17;;;;;;;15.70;3.17;;;26.10;99.90;;;;;;4965218;28;20894;-74
2024/01/16 00:05:45;;;;;;;13.23;2.77;;;25.80;99.90;;;;;;4959290;28;20194;-74
2024/01/16 00:08:12;;;;;;;10.37;2.47;;;25.50;99.90;;;;;;4960012;28;20183;-74
2024/01/16 00:10:40;;;;;;;10.47;2.30;;;24.90;99.90;;;;;;4964878;28;20544;-74
2024/01/16 00:13:08;;;;;;;7.97;2.77;;;24.70;99.90;;;;;;4964041;28;20185;-74
2024/01/16 00:15:36;;;;;;;6.40;2.00;;;24.30;99.90;;;;;;4965468;28;20210;-74
2024/01/16 00:21:25;;;;;;;12.53;2.10;;;23.80;99.90;;;;;;4972808;28;20198;-73
2024/01/16 00:23:53;;;;;;;10.20;2.07;;;23.70;99.90;;;;;;4966529;28;20199;-74
2024/01/16 00:26:25;;;;;;;6.60;1.47;;;23.90;99.90;;;;;;4962558;28;20643;-74
2024/01/16 00:28:52;;;;;;;9.07;2.10;;;24.30;99.90;;;;;;4956209;28;20188;-74
2024/01/16 00:31:20;;;;;;;6.77;1.90;;;24.90;99.90;;;;;;4955646;28;20635;-73
2024/01/16 00:33:48;;;;;;;12.97;2.70;;;25.10;99.90;;;;;;4956118;29;20190;-72
2024/01/16 00:36:16;;;;;;;14.23;2.80;;;25.60;99.90;;;;;;4969995;28;20179;-72
2024/01/16 00:38:43;;;;;;;9.90;2.40;;;25.60;99.90;;;;;;4954229;29;20196;-74
2024/01/16 00:41:11;;;;;;;11.57;2.67;;;25.70;99.90;;;;;;4966257;28;20194;-74
2024/01/16 00:43:39;;;;;;;14.80;2.90;;;25.50;99.90;;;;;;4969672;28;20872;-70
2024/01/16 00:46:07;;;;;;;10.50;3.00;;;25.30;99.90;;;;;;4965166;28;20539;-73
2024/01/16 00:48:34;;;;;;;11.77;2.33;;;25.20;99.90;;;;;;4967430;28;20191;-75
2024/01/16 00:51:02;;;;;;;10.00;2.70;;;25.00;99.90;;;;;;4954475;29;20186;-73
2024/01/16 00:53:30;;;;;;;7.40;2.07;;;24.60;99.90;;;;;;4965220;28;20187;-72
2024/01/16 00:55:58;;;;;;;6.87;1.93;;;24.20;99.90;;;;;;4968452;28;20184;-72
2024/01/16 00:58:26;;;;;;;11.10;2.77;;;23.70;99.90;;;;;;4971244;28;20226;-74
2024/01/16 01:00:54;;;;;;;12.87;2.80;;;23.30;99.90;;;;;;4974499;28;20183;-73
2024/01/16 01:03:22;;;;;;;8.90;2.17;;;23.00;99.90;;;;;;4973202;28;20295;-74
2024/01/16 01:05:49;;;;;;;13.37;2.90;;;23.00;99.90;;;;;;4975071;28;20348;-74
2024/01/16 01:08:18;;;;;;;15.03;3.23;;;22.90;99.90;;;;;;4967328;28;20191;-73
2024/01/16 01:10:45;;;;;;;15.47;2.53;;;23.20;99.90;;;;;;4960314;28;20588;-74
2024/01/16 01:13:13;;;;;;;17.83;3.73;;;23.40;99.90;;;;;;4973551;28;20597;-72
2024/01/16 01:22:25;;;;;;;6.30;1.80;;;23.60;99.90;;;;;;4963811;28;20301;-74
2024/01/16 01:24:53;;;;;;;7.80;2.37;;;24.20;99.90;;;;;;4954057;29;20188;-73
2024/01/16 01:27:20;;;;;;;10.73;2.53;;;24.60;99.90;;;;;;4955166;28;20281;-74
2024/01/16 01:29:48;;;;;;;7.70;2.20;;;25.10;99.90;;;;;;4966771;28;20191;-76
2024/01/16 01:32:16;;;;;;;8.07;2.40;;;25.40;99.90;;;;;;4967384;28;20189;-75
2024/01/16 01:34:43;;;;;;;11.13;2.27;;;25.60;99.90;;;;;;4955137;28;20180;-74
2024/01/16 01:37:11;;;;;;;9.43;2.23;;;25.80;99.90;;;;;;4954529;29;20275;-73
2024/01/16 01:39:39;;;;;;;12.23;2.30;;;25.70;99.90;;;;;;4955094;29;20180;-74
2024/01/16 01:42:07;;;;;;;8.67;2.07;;;25.70;99.90;;;;;;4959789;28;20226;-73
2024/01/16 01:44:34;;;;;;;10.27;2.23;;;25.60;99.90;;;;;;4973814;28;20180;-73
2024/01/16 01:47:02;;;;;;;21.67;3.70;;;25.50;99.90;;;;;;4974133;28;20550;-76
2024/01/16 01:49:31;;;;;;;10.77;2.57;;;25.30;99.90;;;;;;4974052;28;20179;-74
2024/01/16 01:51:59;;;;;;;9.13;2.33;;;24.90;99.90;;;;;;4969760;28;20220;-74
2024/01/16 01:54:28;;;;;;;13.50;2.77;;;24.80;99.90;;;;;;4954730;28;20235;-75
2024/01/16 01:56:56;;;;;;;11.00;2.73;;;25.00;99.90;;;;;;4954703;28;20218;-78
2024/01/16 01:59:24;;;;;;;15.87;2.60;;;25.10;99.90;;;;;;4954124;28;20558;-74
2024/01/16 02:01:53;;;;;;;14.63;3.00;;;25.70;99.90;;;;;;4956895;28;20307;-75
2024/01/16 02:04:22;;;;;;;12.13;2.77;;;26.40;99.90;;;;;;4973748;28;20176;-75
2024/01/16 02:06:50;;;;;;;12.93;3.27;;;26.80;99.90;;;;;;4967005;28;20195;-75
2024/01/16 02:09:18;;;;;;;16.40;3.47;;;27.30;99.90;;;;;;4973453;28;20210;-74
2024/01/16 02:11:45;;;;;;;13.13;2.40;;;27.20;99.90;;;;;;4967620;28;20188;-73
2024/01/16 02:14:14;;;;;;;13.53;2.90;;;26.90;99.90;;;;;;4953772;28;20188;-74
2024/01/16 02:16:44;;;;;;;14.50;3.17;;;26.50;99.90;;;;;;4956235;28;20555;-76
2024/01/16 02:19:12;;;;;;;9.67;2.50;;;26.20;99.90;;;;;;4973550;28;20241;-75
2024/01/16 02:21:49;;;;;;;9.20;2.67;;;25.70;99.90;;;;;;4967905;28;20192;-75
2024/01/16 02:24:18;;;;;;;6.50;1.90;;;25.80;99.90;;;;;;4954058;28;20180;-75
2024/01/16 02:26:46;;;;;;;14.97;2.77;;;25.70;99.90;;;;;;4953977;28;20270;-74
2024/01/16 02:29:16;;;;;;;9.23;2.23;;;25.60;99.90;;;;;;4953545;28;20196;-75
2024/01/16 02:31:43;;;;;;;9.37;2.03;;;25.50;99.90;;;;;;4958836;28;20187;-76
2024/01/16 02:34:11;;;;;;;6.93;1.37;;;25.60;99.90;;;;;;4973228;28;20175;-76
2024/01/16 02:36:39;;;;;;;8.50;1.97;;;25.60;99.90;;;;;;4969033;28;20198;-76
2024/01/16 02:39:06;;;;;;;7.83;2.17;;;25.50;99.90;;;;;;4954158;28;20184;-75
2024/01/16 02:41:34;;;;;;;6.73;2.50;;;25.40;99.90;;;;;;4960300;28;20214;-74
2024/01/16 02:44:02;;;;;;;8.47;1.97;;;25.30;99.90;;;;;;4969062;28;20561;-72
2024/01/16 02:46:29;;;;;;;11.33;2.73;;;25.50;99.90;;;;;;4953838;28;20199;-75
2024/01/16 02:48:57;;;;;;;13.63;2.50;;;25.60;99.90;;;;;;4963006;28;20269;-73
2024/01/16 02:51:25;;;;;;;12.40;2.63;;;25.70;99.90;;;;;;4970858;28;20175;-73
2024/01/16 02:53:52;;;;;;;11.23;2.40;;;25.70;99.90;;;;;;4953660;28;20219;-74
2024/01/16 02:56:20;;;;;;;12.60;2.63;;;25.70;99.90;;;;;;4953770;28;20182;-74
2024/01/16 02:58:48;;;;;;;9.93;2.23;;;25.80;99.90;;;;;;4953253;28;20258;-74
2024/01/16 03:01:16;;;;;;;15.07;2.90;;;25.90;99.90;;;;;;4953521;28;20181;-75
2024/01/16 03:03:44;;;;;;;15.37;3.23;;;25.90;99.90;;;;;;4953882;28;20219;-75
2024/01/16 03:06:21;;;;;;;11.40;2.37;;;25.70;99.90;;;;;;4955225;28;20184;-73
2024/01/16 03:08:49;;;;;;;15.70;3.77;;;25.40;99.90;;;;;;4967215;28;20237;-75
2024/01/16 03:14:39;;;;;;;12.00;2.77;;;23.90;99.90;;;;;;4964088;29;20183;-73
2024/01/16 03:17:07;;;;;;;11.97;3.10;;;23.20;99.90;;;;;;5002944;28;20203;-75
2024/01/16 03:19:34;;;;;;;19.73;4.20;;;23.00;99.90;;;;;;4961343;28;20184;-76
2024/01/16 03:22:03;;;;;;;15.67;3.17;;;22.90;99.90;;;;;;4952886;28;20243;-75
2024/01/16 03:24:31;;;;;;;13.00;2.87;;;22.90;99.90;;;;;;4962766;28;20190;-77
2024/01/16 03:26:58;;;;;;;14.20;3.10;;;22.90;99.90;;;;;;4972576;28;20274;-76
2024/01/16 03:29:26;;;;;;;13.43;3.40;;;22.90;99.90;;;;;;4972364;28;20662;-73
2024/01/16 03:31:54;;;;;;;15.03;3.73;;;22.80;99.90;;;;;;4972699;28;20179;-75
2024/01/16 03:34:21;;;;;;;17.83;3.10;;;22.90;99.90;;;;;;4967564;28;20184;-75
2024/01/16 03:36:49;;;;;;;13.67;2.87;;;22.80;99.90;;;;;;4957177;28;20252;-77
2024/01/16 03:39:17;;;;;;;17.60;3.57;;;22.80;99.90;;;;;;4957272;29;20371;-74
2024/01/16 03:41:45;;;;;;;10.83;3.07;;;22.80;99.90;;;;;;4963516;28;20195;-73
2024/01/16 03:44:12;;;;;;;14.87;3.03;;;22.70;99.90;;;;;;4956640;28;20199;-73
2024/01/16 03:46:40;;;;;;;19.10;3.87;;;22.80;99.90;;;;;;4956726;28;20594;-78
2024/01/16 03:49:08;;;;;;;15.77;3.20;;;22.80;99.90;;;;;;4956895;29;20234;-71
2024/01/16 03:51:35;;;;;;;15.80;3.00;;;22.90;99.90;;;;;;4955349;28;20283;-75
2024/01/16 03:54:04;;;;;;;13.00;2.80;;;22.90;99.90;;;;;;4956776;28;20191;-74
2024/01/16 03:56:31;;;;;;;13.23;3.30;;;23.00;99.90;;;;;;4956576;28;20190;-74
2024/01/16 03:58:59;;;;;;;14.83;2.90;;;23.30;99.90;;;;;;4956301;28;20271;-74
2024/01/16 04:01:34;;;;;;;14.87;2.43;;;23.40;99.90;;;;;;4956414;28;20180;-72
2024/01/16 04:04:01;;;;;;;14.90;2.97;;;23.70;99.90;;;;;;4956510;28;20185;-73
2024/01/16 04:06:29;;;;;;;12.13;2.90;;;24.20;99.90;;;;;;4956373;28;20180;-75
2024/01/16 04:08:57;;;;;;;17.73;3.63;;;24.40;99.90;;;;;;4956496;28;20195;-75
2024/01/16 04:11:25;;;;;;;16.23;3.10;;;24.40;99.90;;;;;;4956476;28;20317;-73
2024/01/16 04:13:52;;;;;;;17.90;3.33;;;24.60;99.90;;;;;;4954664;28;20286;-73
2024/01/16 04:16:20;;;;;;;11.33;2.47;;;24.60;99.90;;;;;;4956263;28;20235;-72
2024/01/16 04:18:48;;;;;;;15.73;3.10;;;24.80;99.90;;;;;;4956124;28;20219;-71
2024/01/16 04:21:16;;;;;;;14.57;3.10;;;24.90;99.90;;;;;;4955972;28;20187;-74
2024/01/16 04:23:44;;;;;;;18.07;3.30;;;25.10;99.90;;;;;;4956174;28;20259;-74
2024/01/16 04:26:11;;;;;;;11.10;2.80;;;25.00;99.90;;;;;;4955985;28;20267;-73
2024/01/16 04:28:39;;;;;;;13.17;2.97;;;25.20;99.90;;;;;;4955823;28;20252;-73
2024/01/16 04:31:07;;;;;;;10.50;2.63;;;25.50;99.90;;;;;;4973655;28;20219;-74
2024/01/16 04:33:34;;;;;;;14.03;3.63;;;26.30;99.90;;;;;;4972958;28;20270;-72
2024/01/16 04:36:02;;;;;;;15.10;3.87;;;27.20;99.90;;;;;;4965460;28;20191;-74
2024/01/16 04:38:30;;;;;;;11.23;2.77;;;27.60;99.90;;;;;;4975033;28;20198;-73
2024/01/16 04:41:01;;;;;;;13.27;3.10;;;27.50;99.90;;;;;;4971508;28;20195;-74
2024/01/16 04:43:28;;;;;;;11.10;3.10;;;27.40;99.90;;;;;;4971280;28;20301;-74
2024/01/16 04:45:57;;;;;;;14.10;3.20;;;27.20;99.90;;;;;;4971177;28;20183;-74
2024/01/16 04:48:24;;;;;;;13.70;3.73;;;26.90;99.90;;;;;;4964098;28;20190;-74
2024/01/16 04:50:52;;;;;;;18.27;3.40;;;26.70;99.90;;;;;;4967172;28;20512;-75
2024/01/16 04:53:20;;;;;;;16.47;3.70;;;26.40;99.90;;;;;;4955741;28;20183;-76
2024/01/16 04:55:47;;;;;;;15.77;3.30;;;26.10;99.90;;;;;;4956061;28;20622;-76
2024/01/16 04:58:15;;;;;;;13.97;3.53;;;25.90;99.90;;;;;;4968413;28;20551;-74
2024/01/16 05:00:43;;;;;;;18.83;3.40;;;25.70;99.90;;;;;;4956407;28;20266;-74
2024/01/16 05:03:11;;;;;;;16.97;3.43;;;25.60;99.90;;;;;;4955456;28;20203;-75
2024/01/16 05:05:39;;;;;;;17.37;3.33;;;25.60;99.90;;;;;;4955213;29;20179;-74
2024/01/16 05:08:07;;;;;;;14.73;3.20;;;25.60;99.90;;;;;;4955800;28;20184;-75
2024/01/16 05:10:34;;;;;;;13.67;3.30;;;25.70;99.90;;;;;;4955369;28;20176;-74
2024/01/16 05:13:02;;;;;;;14.27;3.37;;;26.00;99.90;;;;;;4972940;28;20183;-73
2024/01/16 05:15:30;;;;;;;12.37;3.20;;;26.00;99.90;;;;;;4974486;28;20175;-74
2024/01/16 05:17:57;;;;;;;16.80;3.07;;;26.20;99.90;;;;;;4973503;28;20645;-74
2024/01/16 05:20:25;;;;;;;11.40;2.70;;;26.20;99.90;;;;;;4974278;28;20629;-74
2024/01/16 05:22:53;;;;;;;14.03;3.03;;;26.10;99.90;;;;;;4965142;28;20235;-74
2024/01/16 05:25:21;;;;;;;14.63;3.23;;;26.20;99.90;;;;;;4967233;28;20179;-74
2024/01/16 05:27:49;;;;;;;17.57;3.07;;;26.20;99.90;;;;;;4973962;28;20185;-74
2024/01/16 05:33:38;;;;;;;14.37;3.33;;;26.10;99.90;;;;;;4953686;29;20195;-73
2024/01/16 05:36:06;;;;;;;13.10;3.03;;;25.90;99.90;;;;;;4962300;28;20192;-73
2024/01/16 05:45:02;;;;;;;17.67;3.13;;;25.30;99.90;;;;;;4949035;29;20208;-73
2024/01/16 05:47:30;;;;;;;12.63;2.73;;;25.20;99.90;;;;;;4919087;29;20248;-74
2024/01/16 05:49:58;;;;;;;15.37;3.03;;;24.90;99.90;;;;;;4926452;29;20188;-74
2024/01/16 05:52:26;;;;;;;17.70;3.73;;;24.30;99.90;;;;;;4951874;28;20195;-75
2024/01/16 05:54:57;;;;;;;16.27;2.90;;;23.90;99.90;;;;;;4937057;29;20181;-74
2024/01/16 06:00:46;;;;;;;14.20;3.30;;;23.60;99.90;;;;;;4932423;29;20305;-77
2024/01/16 06:03:14;;;;;;;14.10;3.23;;;23.60;99.90;;;;;;4933277;29;20662;-76
2024/01/16 06:05:42;;;;;;;11.77;2.50;;;23.50;99.90;;;;;;4932427;29;20184;-75
2024/01/16 06:08:09;;;;;;;13.90;3.13;;;23.50;99.90;;;;;;4932874;29;20681;-77
2024/01/16 06:10:37;;;;;;;14.47;3.40;;;23.60;99.90;;;;;;4934286;29;20192;-76
2024/01/16 06:13:05;;;;;;;13.57;3.13;;;23.50;99.90;;;;;;4932684;29;20635;-76
2024/01/16 06:15:33;;;;;;;13.53;3.20;;;23.50;99.90;;;;;;4932911;29;20200;-75
2024/01/16 06:18:00;;;;;;;13.50;2.73;;;23.50;99.90;;;;;;4932564;29;20208;-76
2024/01/16 06:20:29;;;;;;;17.03;3.10;;;23.70;99.90;;;;;;4935517;29;20184;-76
2024/01/16 06:22:57;;;;;;;12.50;3.00;;;23.90;99.90;;;;;;4935326;29;20274;-77
2024/01/16 06:25:24;;;;;;;12.80;2.57;;;24.00;99.90;;;;;;4951845;29;20377;-77
2024/01/16 06:27:52;;;;;;;13.60;2.90;;;24.10;99.90;;;;;;4951222;29;20184;-76
2024/01/16 06:30:20;;;;;;;16.47;2.77;;;24.20;99.90;;;;;;4949380;29;20270;-77
2024/01/16 06:32:48;;;;;;;15.93;2.77;;;24.30;99.90;;;;;;4952991;29;20200;-77
2024/01/16 06:35:17;;;;;;;9.73;2.87;;;24.40;99.90;;;;;;4953574;28;20177;-77
2024/01/16 06:37:45;;;;;;;15.90;2.93;;;24.40;99.90;;;;;;4954025;29;20640;-76
2024/01/16 06:40:13;;;;;;;16.23;3.30;;;24.40;99.90;;;;;;4953710;28;20184;-76
2024/01/16 06:42:40;;;;;;;15.07;3.77;;;24.60;99.90;;;;;;4954544;28;20299;-77
2024/01/16 06:45:09;;;;;;;20.23;3.20;;;24.70;99.90;;;;;;4953776;28;20183;-77
2024/01/16 06:47:36;;;;;;;16.47;3.30;;;24.60;99.90;;;;;;4954964;28;20208;-75
2024/01/16 06:50:04;;;;;;;21.10;3.90;;;24.70;99.90;;;;;;4964757;28;20183;-74
2024/01/16 06:52:32;;;;;;;13.60;2.80;;;24.60;99.90;;;;;;4973043;28;20254;-75
2024/01/16 06:55:00;;;;;;;11.57;2.60;;;24.60;99.90;;;;;;4954412;28;20191;-75
2024/01/16 06:57:28;;;;;;;12.77;2.97;;;24.50;99.90;;;;;;4953201;28;20815;-76
2024/01/16 06:59:55;;;;;;;14.77;2.73;;;24.50;99.90;;;;;;4957805;28;20191;-74
2024/01/16 07:02:23;;;;;;;16.00;3.40;;;24.50;99.90;;;;;;4972796;28;20583;-76
2024/01/16 07:04:51;;;;;;;19.60;3.53;;;24.50;99.90;;;;;;4965024;28;20191;-75
2024/01/16 07:07:19;;;;;;;14.80;3.07;;;24.60;99.90;;;;;;4972795;28;20602;-77
2024/01/16 07:09:47;;;;;;;14.67;3.00;;;24.50;99.90;;;;;;4972194;28;20233;-75
2024/01/16 07:12:15;;;;;;;16.57;3.37;;;24.50;99.90;;;;;;4972253;28;20619;-77
2024/01/16 07:14:42;;;;;;;15.97;3.10;;;24.50;99.90;;;;;;4972865;28;20584;-77
2024/01/16 07:17:10;;;;;;;14.90;2.87;;;24.50;99.90;;;;;;4964047;28;20191;-77
2024/01/16 07:19:38;;;;;;;20.97;3.70;;;24.50;99.90;;;;;;4952962;29;20270;-77
2024/01/16 07:22:05;;;;;;;16.90;3.93;;;24.40;99.90;;;;;;4953154;28;20266;-77
2024/01/16 07:24:33;;;;;;;17.50;3.20;;;24.50;99.90;;;;;;4953570;29;20180;-76
2024/01/16 07:27:00;;;;;;;13.20;3.33;;;24.50;99.90;;;;;;4953068;29;20235;-76
2024/01/16 07:29:28;;;;;;;18.37;3.30;;;24.60;99.90;;;;;;4953775;29;20527;-76
2024/01/16 07:31:56;;;;;;;17.20;3.93;;;24.50;99.90;;;;;;4961570;28;20187;-76
2024/01/16 07:34:25;;;;;;;15.50;2.80;;;24.50;99.90;;;;;;4980661;28;20195;-76
2024/01/16 07:36:54;;;;;;;10.17;2.90;;;24.40;99.90;;;;;;4990012;28;20636;-76
2024/01/16 07:39:22;;;;;;;14.63;3.10;;;24.40;99.90;;;;;;4984044;28;20557;-77
2024/01/16 07:41:50;;;;;;;14.70;2.73;;;24.40;99.90;;;;;;4964393;28;20188;-76
2024/01/16 07:44:18;;;;;;;17.87;3.87;;;24.40;99.90;;;;;;4953287;29;20176;-76
2024/01/16 07:46:45;;;;;;;19.57;3.53;;;24.40;99.90;;;;;;4953053;29;20301;-77
2024/01/16 07:49:13;;;;;;;17.63;3.87;;;24.40;99.90;;;;;;4952830;28;20188;-76
2024/01/16 07:51:41;;;;;;;13.07;2.97;;;24.50;99.90;;;;;;4953402;28;20282;-76
2024/01/16 07:54:10;;;;;;;10.63;3.10;;;24.40;99.90;;;;;;4963313;28;20650;-74
2024/01/16 07:56:38;;;;;;;16.57;3.47;;;24.50;99.90;;;;;;4972104;28;20650;-76
2024/01/16 07:59:07;;;;;;;23.80;4.23;;;24.50;99.90;;;;;;4972366;28;20206;-76
2024/01/16 08:01:35;;;;;;;13.93;3.17;;;24.50;99.90;;;;;;4967724;28;20188;-75
2024/01/16 08:04:03;;;;;;;23.00;4.20;;;24.60;99.90;;;;;;4953047;28;20231;-76
2024/01/16 08:06:32;;;;;;;19.43;3.63;;;24.60;99.90;;;;;;4962507;28;20180;-75
2024/01/16 08:08:59;;;;;;;20.67;3.47;;;24.60;99.90;;;;;;4961978;28;20180;-75
2024/01/16 08:11:27;;;;;;;11.90;2.70;;;24.50;99.90;;;;;;4961144;28;20656;-75
2024/01/16 08:13:55;;;;;;;18.30;3.30;;;24.60;99.90;;;;;;4970075;28;20266;-76
2024/01/16 08:16:23;;;;;;;22.00;3.80;;;24.60;99.90;;;;;;4972273;28;20189;-75
2024/01/16 08:18:51;;;;;;;17.77;3.43;;;24.50;99.90;;;;;;4970617;28;20179;-75
2024/01/16 08:25:05;;;;;;;14.83;3.07;;;24.40;99.90;;;;;;4957929;28;20259;-75
2024/01/16 08:30:55;;;;;;;18.40;3.73;;;24.40;99.90;;;;;;4974304;28;20330;-75
2024/01/16 08:33:22;;;;;;;16.57;4.00;;;24.40;99.90;;;;;;4973819;28;20191;-74
2024/01/16 08:35:50;;;;;;;19.60;3.77;;;24.30;99.90;;;;;;4975374;28;20183;-75
2024/01/16 08:38:18;;;;;;;24.10;3.80;;;24.40;99.90;;;;;;4965068;28;20195;-74
2024/01/16 08:40:45;;;;;;;22.67;3.90;;;24.50;99.90;;;;;;4955617;28;20180;-74
2024/01/16 08:46:36;;;;;;;22.97;4.23;;;24.60;99.90;;;;;;4971437;28;20191;-74
2024/01/16 08:49:03;;;;;;;22.47;3.97;;;24.50;99.90;;;;;;4976523;28;20171;-75
2024/01/16 08:51:31;;;;;;;16.20;3.03;;;24.50;99.90;;;;;;4970958;28;20597;-75
2024/01/16 08:53:59;;;;;;;18.50;4.00;;;24.40;99.90;;;;;;4972182;28;20680;-76
2024/01/16 08:56:26;;;;;;;17.83;3.80;;;24.20;99.90;;;;;;4957103;28;20612;-74
2024/01/16 08:58:54;;;;;;;14.27;3.63;;;24.20;99.90;;;;;;4957245;28;20622;-75
2024/01/16 09:01:22;;;;;;;17.53;3.53;;;24.10;99.90;;;;;;4972240;28;20625;-75
2024/01/16 09:03:49;;;;;;;17.10;3.60;;;23.80;99.90;;;;;;4976306;28;20237;-76
2024/01/16 09:06:17;;;;;;;16.40;4.60;;;23.50;99.90;;;;;;4975998;28;20214;-76
2024/01/16 09:08:45;;;;;;;19.17;3.40;;;23.20;99.90;;;;;;4976010;28;20650;-75
2024/01/16 09:11:12;;;;;;;21.27;4.70;;;23.10;99.90;;;;;;4976384;28;20190;-75
2024/01/16 09:13:40;;;;;;;19.03;3.90;;;23.00;99.90;;;;;;4976210;28;20625;-76
2024/01/16 09:16:08;;;;;;;18.97;3.87;;;23.00;99.90;;;;;;4976254;28;20554;-76
2024/01/16 09:18:35;;;;;;;21.63;3.67;;;22.90;99.90;;;;;;4976115;28;20619;-75
2024/01/16 09:21:03;;;;;;;17.10;4.53;;;22.80;99.90;;;;;;4975961;28;20183;-75
2024/01/16 09:23:31;;;;;;;18.07;4.30;;;22.80;99.90;;;;;;4976063;28;20277;-75
2024/01/16 09:25:59;;;;;;;15.13;4.17;;;22.80;99.90;;;;;;4975857;28;20223;-75
2024/01/16 09:28:28;;;;;;;18.37;4.20;;;22.90;99.90;;;;;;4975830;28;20187;-75
2024/01/16 09:30:56;;;;;;;18.87;4.23;;;22.90;99.90;;;;;;4974549;28;20184;-76
2024/01/16 09:33:27;;;;;;;16.00;4.07;;;22.90;99.90;;;;;;4973848;28;20226;-75
2024/01/16 09:35:55;;;;;;;19.60;4.83;;;22.90;99.90;;;;;;4975872;28;20230;-75
2024/01/16 09:38:23;;;;;;;17.70;4.10;;;22.90;99.90;;;;;;4975848;28;20184;-75
2024/01/16 09:40:52;;;;;;;19.50;3.70;;;22.90;99.90;;;;;;4953316;28;20207;-72
2024/01/16 09:43:20;;;;;;;21.97;3.90;;;22.90;99.90;;;;;;4951508;28;20304;-74
2024/01/16 09:45:49;;;;;;;21.37;3.93;;;22.90;99.90;;;;;;4963904;28;20221;-76
2024/01/16 09:48:17;;;;;;;19.90;3.50;;;22.90;99.90;;;;;;4973483;28;20633;-77
2024/01/16 09:50:45;;;;;;;23.70;4.27;;;22.90;99.90;;;;;;4973761;28;20277;-75
2024/01/16 09:53:12;;;;;;;18.10;3.60;;;22.90;99.90;;;;;;4973112;28;20195;-74
2024/01/16 09:55:40;;;;;;;21.57;4.07;;;22.90;99.90;;;;;;4973390;28;20187;-75
2024/01/16 09:58:14;;;;;;;27.20;4.03;;;22.90;99.90;;;;;;4973424;28;20641;-74
2024/01/16 10:00:43;;;;;;;23.40;4.30;;;22.80;99.90;;;;;;4973387;28;20191;-76
2024/01/16 10:03:14;;;;;;;25.33;4.47;;;22.90;99.90;;;;;;4972800;28;20229;-76
2024/01/16 10:05:46;;;;;;;21.20;3.63;;;22.80;99.90;;;;;;4973438;28;20187;-75
2024/01/16 10:08:14;;;;;;;18.47;4.13;;;22.80;99.90;;;;;;4973205;28;20183;-78
2024/01/16 10:10:41;;;;;;;19.33;4.30;;;22.80;99.90;;;;;;4955354;28;20187;-75
2024/01/16 10:13:09;;;;;;;35.10;4.57;;;22.80;99.90;;;;;;4954065;28;20221;-76
2024/01/16 10:15:37;;;;;;;26.50;4.63;;;22.90;99.90;;;;;;4955849;28;20193;-76
2024/01/16 10:18:06;;;;;;;18.13;3.57;;;22.90;99.90;;;;;;4973069;28;20191;-76
2024/01/16 10:20:36;;;;;;;18.13;3.97;;;22.90;99.90;;;;;;4973301;28;20187;-76
2024/01/16 10:23:03;;;;;;;20.03;4.10;;;22.90;99.90;;;;;;4973099;28;20582;-76
2024/01/16 10:25:31;;;;;;;21.33;3.23;;;22.90;99.90;;;;;;4970449;28;20245;-75
2024/01/16 10:28:11;;;;;;;29.97;3.60;;;22.90;99.90;;;;;;4953735;28;20241;-74
2024/01/16 10:30:39;;;;;;;16.57;3.27;;;22.80;99.90;;;;;;4953851;28;20554;-76
2024/01/16 10:33:16;;;;;;;20.13;3.53;;;22.80;99.90;;;;;;4953234;28;20188;-75
2024/01/16 10:35:44;;;;;;;18.23;3.63;;;22.70;99.90;;;;;;4956551;28;20266;-74
2024/01/16 10:38:22;;;;;;;22.70;3.60;;;22.70;99.90;;;;;;4972855;28;20237;-76
2024/01/16 10:41:06;;;;;;;23.30;4.20;;;22.70;99.90;;;;;;4971040;28;20186;-76
2024/01/16 10:43:35;;;;;;;18.73;3.67;;;22.80;99.90;;;;;;4972829;28;20224;-73
2024/01/16 10:46:15;;;;;;;17.57;3.87;;;22.80;99.90;;;;;;4963902;28;20226;-74
2024/01/16 10:48:58;;;;;;;21.33;4.50;;;22.80;99.90;;;;;;4970759;28;20241;-75
2024/01/16 10:51:29;;;;;;;26.13;4.40;;;22.90;99.90;;;;;;4972806;28;20174;-75
2024/01/16 10:54:05;;;;;;;20.03;3.30;;;22.80;99.90;;;;;;4961858;28;20259;-75
2024/01/16 10:56:33;;;;;;;19.30;3.50;;;22.70;99.90;;;;;;4969432;28;20619;-75
2024/01/16 10:59:24;;;;;;;16.47;3.90;;;22.70;99.90;;;;;;4972243;28;20187;-74
2024/01/16 11:02:00;;;;;;;18.53;2.93;;;22.60;99.90;;;;;;4953173;28;20816;-74
2024/01/16 11:04:29;;;;;;;23.03;3.80;;;22.50;99.90;;;;;;4951739;28;20203;-75
2024/01/16 11:06:58;;;;;;;14.27;2.77;;;22.50;99.90;;;;;;4956410;28;20278;-75
2024/01/16 11:09:26;;;;;;;18.53;3.97;;;22.40;99.90;;;;;;4953535;28;20483;-73
2024/01/16 11:11:55;;;;;;;14.57;4.10;;;22.40;99.90;;;;;;4958255;28;20183;-74
2024/01/16 11:14:25;;;;;;;20.70;4.23;;;22.50;99.90;;;;;;4971834;28;20188;-74
2024/01/16 11:16:56;;;;;;;16.87;4.27;;;22.50;99.90;;;;;;4969016;28;20889;-74
2024/01/16 11:19:24;;;;;;;17.63;3.67;;;22.50;99.90;;;;;;4954812;28;20616;-75
2024/01/16 11:21:53;;;;;;;18.27;4.27;;;22.50;99.90;;;;;;4964909;28;20187;-76
2024/01/16 11:24:20;;;;;;;21.13;3.77;;;22.50;99.90;;;;;;4971827;28;20179;-74
2024/01/16 11:26:48;;;;;;;17.43;2.93;;;22.50;99.90;;;;;;4971067;28;20231;-74
2024/01/16 11:29:28;;;;;;;18.50;3.40;;;22.50;99.90;;;;;;4971646;28;20191;-74
2024/01/16 11:31:57;;;;;;;20.00;3.60;;;22.50;99.90;;;;;;4970703;28;20185;-74
2024/01/16 11:34:50;;;;;;;14.73;2.90;;;22.50;99.90;;;;;;4971297;28;20185;-73
2024/01/16 11:37:36;;;;;;;22.83;3.93;;;22.50;99.90;;;;;;4970442;28;20670;-75
2024/01/16 11:40:21;;;;;;;28.53;4.10;;;22.50;99.90;;;;;;4970691;28;20246;-74
2024/01/16 11:42:52;;;;;;;15.57;3.10;;;22.50;99.90;;;;;;4967644;28;20714;-74
2024/01/16 11:45:29;;;;;;;15.03;3.27;;;22.50;99.90;;;;;;4954390;28;20282;-74
2024/01/16 11:48:17;;;;;;;16.97;3.00;;;22.60;99.90;;;;;;4961818;28;20555;-74
2024/01/16 11:50:45;;;;;;;17.17;3.80;;;22.50;99.90;;;;;;4954932;28;20215;-74
2024/01/16 11:53:40;;;;;;;17.60;3.60;;;22.40;99.90;;;;;;4954526;28;20278;-74
2024/01/16 11:56:16;;;;;;;20.00;3.17;;;22.40;99.90;;;;;;4971802;28;20183;-73
2024/01/16 11:58:59;;;;;;;18.27;3.17;;;22.40;99.90;;;;;;4976812;28;20265;-74
2024/01/16 12:01:28;;;;;;;21.27;3.73;;;22.30;99.90;;;;;;4963343;28;20270;-74
2024/01/16 12:04:06;;;;;;;12.90;3.10;;;22.30;99.90;;;;;;4971950;28;20238;-74
2024/01/16 12:06:35;;;;;;;14.70;2.60;;;22.30;99.90;;;;;;4976787;28;20186;-74
2024/01/16 12:09:13;;;;;;;16.93;3.03;;;22.30;99.90;;;;;;4963027;28;20650;-74
2024/01/16 12:11:47;;;;;;;19.67;3.27;;;22.30;99.90;;;;;;4957997;28;20226;-74
2024/01/16 12:14:15;;;;;;;9.37;2.53;;;22.40;99.90;;;;;;4958042;28;20230;-75
2024/01/16 12:16:42;;;;;;;12.43;2.67;;;22.40;99.90;;;;;;4967520;28;20203;-74
2024/01/16 12:19:11;;;;;;;14.73;2.93;;;22.40;99.90;;;;;;4977117;28;20253;-74
2024/01/16 12:21:46;;;;;;;12.63;2.93;;;22.40;99.90;;;;;;4959130;28;20184;-74
2024/01/16 12:24:13;;;;;;;21.33;3.60;;;22.40;99.90;;;;;;4957994;28;20205;-74
2024/01/16 12:26:41;;;;;;;12.90;2.30;;;22.40;99.90;;;;;;4957221;28;20316;-74
2024/01/16 12:29:10;;;;;;;20.47;3.20;;;22.40;99.90;;;;;;4972892;28;20210;-74
2024/01/16 12:31:37;;;;;;;18.03;3.43;;;22.40;99.90;;;;;;4976592;28;20190;-73
2024/01/16 12:34:10;;;;;;;13.43;3.27;;;22.40;99.90;;;;;;4976768;28;20187;-73
2024/01/16 12:36:38;;;;;;;15.17;2.90;;;22.40;99.90;;;;;;4974967;28;20595;-73
2024/01/16 12:39:06;;;;;;;14.83;2.93;;;22.40;99.90;;;;;;4976678;28;20179;-74
2024/01/16 12:41:45;;;;;;;12.70;2.23;;;22.40;99.90;;;;;;4976426;28;20648;-74
2024/01/16 12:44:13;;;;;;;17.17;3.53;;;22.40;99.90;;;;;;4976768;28;20217;-74
2024/01/16 12:46:41;;;;;;;12.23;2.90;;;22.50;99.90;;;;;;4976774;28;20649;-73
2024/01/16 12:49:11;;;;;;;19.07;3.37;;;22.50;99.90;;;;;;4976085;28;20191;-74
2024/01/16 12:51:38;;;;;;;17.03;3.20;;;22.50;99.90;;;;;;4976095;28;20223;-74
2024/01/16 12:54:18;;;;;;;14.10;2.70;;;22.50;99.90;;;;;;4976322;28;20274;-73
2024/01/16 12:56:46;;;;;;;20.37;3.43;;;22.50;99.90;;;;;;4975910;28;20708;-73
2024/01/16 12:59:14;;;;;;;23.37;2.90;;;22.50;99.90;;;;;;4976740;28;20217;-73
2024/01/16 13:01:46;;;;;;;15.40;3.20;;;22.40;99.90;;;;;;4976224;28;20226;-73
2024/01/16 13:04:16;;;;;;;12.20;3.20;;;22.40;99.90;;;;;;4975809;28;20662;-73
2024/01/16 13:06:46;;;;;;;17.27;3.13;;;22.40;99.90;;;;;;4975451;28;20175;-73
2024/01/16 13:09:18;;;;;;;15.67;3.60;;;22.40;99.90;;;;;;4974656;28;20191;-73
2024/01/16 13:11:51;;;;;;;16.77;3.10;;;22.40;99.90;;;;;;4964289;28;20179;-73
2024/01/16 13:14:22;;;;;;;14.80;3.50;;;22.50;99.90;;;;;;4976069;28;20190;-73
2024/01/16 13:16:52;;;;;;;17.17;3.70;;;22.40;99.90;;;;;;4976875;28;20660;-73
2024/01/16 13:19:23;;;;;;;18.30;3.13;;;22.50;99.90;;;;;;4971999;28;20179;-73
2024/01/16 13:21:51;;;;;;;15.17;3.10;;;22.40;99.90;;;;;;4956929;28;20180;-73
2024/01/16 13:24:21;;;;;;;15.90;2.93;;;22.40;99.90;;;;;;4957283;28;20176;-73
2024/01/16 13:26:49;;;;;;;15.43;3.27;;;22.40;99.90;;;;;;4957257;28;20224;-73